KFFA/FFA METAR and TAF weather

Enter ICAO airport designator
Station Type Date Time Source
KFFA METAR 2022/05/26 04:55 UTC NOAA

KFFA 260455Z AUTO 05005KT 5SM BR OVC003 18/18 A3018 RMK AO2 T01750175


Station Type Date Time Source
KFFA Decoded METAR 2022/05/26 04:55 UTC NOAA

Kill Devil Hills, First Flight Airport, NC, United States (KFFA) 36-01N 075-40W
May 26, 2022 - 12:55 AM EDT / 2022.05.26 0455 UTC
Wind: from the NE (050 degrees) at 6 MPH (5 KT):0
Visibility: 5 mile(s):0
Sky conditions: overcast
Weather: mist
Temperature: 63.5 F (17.5 C)
Dew Point: 63.5 F (17.5 C)
Relative Humidity: 100%
Pressure (altimeter): 30.18 in. Hg (1022 hPa)
ob: KFFA 260455Z AUTO 05005KT 5SM BR OVC003 18/18 A3018 RMK AO2 T01750175
cycle: 5

Station Type Date Time Source
KFFA TAF UTC NOAA

Error!

Example: see airport list